sensor_id;sensor_type;location;lat;lon;timestamp;temperature;humidity
13049;DHT22;6591;51.446;5.404;2022-11-20T00:01:23;0.90;99.90
13049;DHT22;6591;51.446;5.404;2022-11-20T00:03:53;0.80;99.90
13049;DHT22;6591;51.446;5.404;2022-11-20T00:06:24;0.70;99.90
13049;DHT22;6591;51.446;5.404;2022-11-20T00:08:57;2.40;99.90
13049;DHT22;6591;51.446;5.404;2022-11-20T00:11:30;0.60;99.90
13049;DHT22;6591;51.446;5.404;2022-11-20T00:14:00;0.60;99.90
13049;DHT22;6591;51.446;5.404;2022-11-20T00:16:31;0.50;99.90
13049;DHT22;6591;51.446;5.404;2022-11-20T00:18:59;0.50;99.90
13049;DHT22;6591;51.446;5.404;2022-11-20T00:21:27;0.40;99.90
13049;DHT22;6591;51.446;5.404;2022-11-20T00:23:56;0.40;99.90
13049;DHT22;6591;51.446;5.404;2022-11-20T00:26:25;0.40;99.90
13049;DHT22;6591;51.446;5.404;2022-11-20T00:28:54;0.40;99.90
13049;DHT22;6591;51.446;5.404;2022-11-20T00:31:24;0.30;99.90
13049;DHT22;6591;51.446;5.404;2022-11-20T00:33:51;0.30;99.90
13049;DHT22;6591;51.446;5.404;2022-11-20T00:36:23;0.30;99.90
13049;DHT22;6591;51.446;5.404;2022-11-20T00:38:53;0.30;99.90
13049;DHT22;6591;51.446;5.404;2022-11-20T00:41:23;0.30;99.90
13049;DHT22;6591;51.446;5.404;2022-11-20T00:43:52;0.20;99.90
13049;DHT22;6591;51.446;5.404;2022-11-20T00:46:22;0.20;99.90
13049;DHT22;6591;51.446;5.404;2022-11-20T00:48:51;0.20;99.90
13049;DHT22;6591;51.446;5.404;2022-11-20T00:51:20;0.10;99.90
13049;DHT22;6591;51.446;5.404;2022-11-20T00:53:49;0.30;99.90
13049;DHT22;6591;51.446;5.404;2022-11-20T00:56:18;0.10;99.90
13049;DHT22;6591;51.446;5.404;2022-11-20T00:58:47;0.10;99.90
13049;DHT22;6591;51.446;5.404;2022-11-20T01:01:20;0.10;99.90
13049;DHT22;6591;51.446;5.404;2022-11-20T01:03:54;0.00;99.90
13049;DHT22;6591;51.446;5.404;2022-11-20T01:06:28;0.00;99.90
13049;DHT22;6591;51.446;5.404;2022-11-20T01:09:04;0.00;99.90
13049;DHT22;6591;51.446;5.404;2022-11-20T01:11:35;0.00;99.90
13049;DHT22;6591;51.446;5.404;2022-11-20T01:14:07;-0.10;99.90
13049;DHT22;6591;51.446;5.404;2022-11-20T01:16:39;-0.10;99.90
13049;DHT22;6591;51.446;5.404;2022-11-20T01:19:11;-0.10;99.90
13049;DHT22;6591;51.446;5.404;2022-11-20T01:21:45;-0.10;99.90
13049;DHT22;6591;51.446;5.404;2022-11-20T01:24:15;-0.10;99.90
13049;DHT22;6591;51.446;5.404;2022-11-20T01:26:44;-0.10;99.90
13049;DHT22;6591;51.446;5.404;2022-11-20T01:29:22;-0.10;99.90
13049;DHT22;6591;51.446;5.404;2022-11-20T01:31:50;-0.10;99.90
13049;DHT22;6591;51.446;5.404;2022-11-20T01:34:20;-0.10;99.90
13049;DHT22;6591;51.446;5.404;2022-11-20T01:36:49;0.00;99.90
13049;DHT22;6591;51.446;5.404;2022-11-20T01:39:21;0.00;99.90
13049;DHT22;6591;51.446;5.404;2022-11-20T01:41:51;0.00;99.90
13049;DHT22;6591;51.446;5.404;2022-11-20T01:44:51;0.10;99.90
13049;DHT22;6591;51.446;5.404;2022-11-20T01:50:06;0.20;99.90
13049;DHT22;6591;51.446;5.404;2022-11-20T01:52:44;0.30;99.90
13049;DHT22;6591;51.446;5.404;2022-11-20T01:55:24;0.40;99.90
13049;DHT22;6591;51.446;5.404;2022-11-20T01:57:55;0.40;99.90
13049;DHT22;6591;51.446;5.404;2022-11-20T02:00:22;0.50;99.90
13049;DHT22;6591;51.446;5.404;2022-11-20T02:02:59;0.60;99.90
13049;DHT22;6591;51.446;5.404;2022-11-20T02:08:16;0.80;99.90
13049;DHT22;6591;51.446;5.404;2022-11-20T02:10:44;0.90;99.90
13049;DHT22;6591;51.446;5.404;2022-11-20T02:13:11;1.00;99.90
13049;DHT22;6591;51.446;5.404;2022-11-20T02:15:57;1.10;99.90
13049;DHT22;6591;51.446;5.404;2022-11-20T02:18:24;1.10;99.90
13049;DHT22;6591;51.446;5.404;2022-11-20T02:20:59;1.20;99.90
13049;DHT22;6591;51.446;5.404;2022-11-20T02:23:39;1.20;99.90
13049;DHT22;6591;51.446;5.404;2022-11-20T02:26:26;1.30;99.90
13049;DHT22;6591;51.446;5.404;2022-11-20T02:28:55;1.30;99.90
13049;DHT22;6591;51.446;5.404;2022-11-20T02:31:22;1.30;99.90
13049;DHT22;6591;51.446;5.404;2022-11-20T02:33:55;1.30;99.90
13049;DHT22;6591;51.446;5.404;2022-11-20T02:36:25;1.40;99.90
13049;DHT22;6591;51.446;5.404;2022-11-20T02:38:54;1.40;99.90
13049;DHT22;6591;51.446;5.404;2022-11-20T02:41:21;1.50;99.90
13049;DHT22;6591;51.446;5.404;2022-11-20T02:43:48;1.50;99.90
13049;DHT22;6591;51.446;5.404;2022-11-20T02:46:15;1.50;99.90
13049;DHT22;6591;51.446;5.404;2022-11-20T02:48:42;1.60;99.90
13049;DHT22;6591;51.446;5.404;2022-11-20T02:51:10;1.60;99.90
13049;DHT22;6591;51.446;5.404;2022-11-20T02:53:37;1.60;99.90
13049;DHT22;6591;51.446;5.404;2022-11-20T02:56:04;1.70;99.90
13049;DHT22;6591;51.446;5.404;2022-11-20T02:58:31;1.70;99.90
13049;DHT22;6591;51.446;5.404;2022-11-20T03:00:58;1.70;99.90
13049;DHT22;6591;51.446;5.404;2022-11-20T03:03:25;1.70;99.90
13049;DHT22;6591;51.446;5.404;2022-11-20T03:05:52;1.80;99.90
13049;DHT22;6591;51.446;5.404;2022-11-20T03:08:19;1.80;99.90
13049;DHT22;6591;51.446;5.404;2022-11-20T03:10:46;1.80;99.90
13049;DHT22;6591;51.446;5.404;2022-11-20T03:13:13;1.80;99.90
13049;DHT22;6591;51.446;5.404;2022-11-20T03:15:40;1.90;99.90
13049;DHT22;6591;51.446;5.404;2022-11-20T03:18:07;1.90;99.90
13049;DHT22;6591;51.446;5.404;2022-11-20T03:20:34;1.90;99.90
13049;DHT22;6591;51.446;5.404;2022-11-20T03:23:01;2.00;99.90
13049;DHT22;6591;51.446;5.404;2022-11-20T03:25:28;2.00;99.90
13049;DHT22;6591;51.446;5.404;2022-11-20T03:27:55;2.00;99.90
13049;DHT22;6591;51.446;5.404;2022-11-20T03:30:22;2.10;99.90
13049;DHT22;6591;51.446;5.404;2022-11-20T03:32:56;2.10;99.90
13049;DHT22;6591;51.446;5.404;2022-11-20T03:35:23;2.10;99.90
13049;DHT22;6591;51.446;5.404;2022-11-20T03:37:49;2.10;99.90
13049;DHT22;6591;51.446;5.404;2022-11-20T03:40:16;2.10;99.90
13049;DHT22;6591;51.446;5.404;2022-11-20T03:42:43;2.20;99.90
13049;DHT22;6591;51.446;5.404;2022-11-20T03:45:17;2.20;99.90
13049;DHT22;6591;51.446;5.404;2022-11-20T03:47:45;3.00;99.90
13049;DHT22;6591;51.446;5.404;2022-11-20T03:50:13;2.20;99.90
13049;DHT22;6591;51.446;5.404;2022-11-20T03:52:40;2.20;99.90
13049;DHT22;6591;51.446;5.404;2022-11-20T03:55:08;2.50;99.90
13049;DHT22;6591;51.446;5.404;2022-11-20T03:57:35;2.20;99.90
13049;DHT22;6591;51.446;5.404;2022-11-20T04:00:03;2.20;99.90
13049;DHT22;6591;51.446;5.404;2022-11-20T04:02:31;2.20;99.90
13049;DHT22;6591;51.446;5.404;2022-11-20T04:04:58;2.20;99.90
13049;DHT22;6591;51.446;5.404;2022-11-20T04:07:24;2.20;99.90
13049;DHT22;6591;51.446;5.404;2022-11-20T04:09:51;2.20;99.90
13049;DHT22;6591;51.446;5.404;2022-11-20T04:12:18;2.20;99.90
13049;DHT22;6591;51.446;5.404;2022-11-20T04:14:45;2.20;99.90
13049;DHT22;6591;51.446;5.404;2022-11-20T04:17:12;2.20;99.90
13049;DHT22;6591;51.446;5.404;2022-11-20T04:19:39;2.20;99.90
13049;DHT22;6591;51.446;5.404;2022-11-20T04:22:06;2.10;99.90
13049;DHT22;6591;51.446;5.404;2022-11-20T04:24:32;2.10;99.90
13049;DHT22;6591;51.446;5.404;2022-11-20T04:26:59;3.20;99.90
13049;DHT22;6591;51.446;5.404;2022-11-20T04:29:26;2.10;99.90
13049;DHT22;6591;51.446;5.404;2022-11-20T04:31:53;2.20;99.90
13049;DHT22;6591;51.446;5.404;2022-11-20T04:34:20;2.20;99.90
13049;DHT22;6591;51.446;5.404;2022-11-20T04:36:47;2.20;99.90
13049;DHT22;6591;51.446;5.404;2022-11-20T04:39:14;2.20;99.90
13049;DHT22;6591;51.446;5.404;2022-11-20T04:41:42;2.30;99.90
13049;DHT22;6591;51.446;5.404;2022-11-20T04:44:09;2.30;99.90
13049;DHT22;6591;51.446;5.404;2022-11-20T04:46:41;2.30;99.90
13049;DHT22;6591;51.446;5.404;2022-11-20T04:49:10;2.30;99.90
13049;DHT22;6591;51.446;5.404;2022-11-20T04:51:37;2.40;99.90
13049;DHT22;6591;51.446;5.404;2022-11-20T04:54:05;2.40;99.90
13049;DHT22;6591;51.446;5.404;2022-11-20T04:56:32;2.40;99.90
13049;DHT22;6591;51.446;5.404;2022-11-20T04:59:02;2.40;99.90
13049;DHT22;6591;51.446;5.404;2022-11-20T05:01:29;2.50;99.90
13049;DHT22;6591;51.446;5.404;2022-11-20T05:03:56;2.50;99.90
13049;DHT22;6591;51.446;5.404;2022-11-20T05:06:23;2.50;99.90
13049;DHT22;6591;51.446;5.404;2022-11-20T05:08:50;2.50;99.90
13049;DHT22;6591;51.446;5.404;2022-11-20T05:11:19;2.50;99.90
13049;DHT22;6591;51.446;5.404;2022-11-20T05:13:48;2.50;99.90
13049;DHT22;6591;51.446;5.404;2022-11-20T05:16:20;2.60;99.90
13049;DHT22;6591;51.446;5.404;2022-11-20T05:18:49;2.60;99.90
13049;DHT22;6591;51.446;5.404;2022-11-20T05:21:17;2.60;99.90
13049;DHT22;6591;51.446;5.404;2022-11-20T05:23:45;2.60;99.90
13049;DHT22;6591;51.446;5.404;2022-11-20T05:26:18;2.60;99.90
13049;DHT22;6591;51.446;5.404;2022-11-20T05:28:48;2.70;99.90
13049;DHT22;6591;51.446;5.404;2022-11-20T05:31:21;2.60;99.90
13049;DHT22;6591;51.446;5.404;2022-11-20T05:33:55;2.60;99.90
13049;DHT22;6591;51.446;5.404;2022-11-20T05:36:23;2.60;99.90
13049;DHT22;6591;51.446;5.404;2022-11-20T05:38:51;2.60;99.90
13049;DHT22;6591;51.446;5.404;2022-11-20T05:41:24;2.60;99.90
13049;DHT22;6591;51.446;5.404;2022-11-20T05:43:51;2.60;99.90
13049;DHT22;6591;51.446;5.404;2022-11-20T05:46:20;2.70;99.90
13049;DHT22;6591;51.446;5.404;2022-11-20T05:48:54;2.70;99.90
13049;DHT22;6591;51.446;5.404;2022-11-20T05:51:23;2.70;99.90
13049;DHT22;6591;51.446;5.404;2022-11-20T05:53:51;2.70;99.90
13049;DHT22;6591;51.446;5.404;2022-11-20T05:56:19;2.80;99.90
13049;DHT22;6591;51.446;5.404;2022-11-20T05:58:48;2.80;99.90
13049;DHT22;6591;51.446;5.404;2022-11-20T06:01:23;2.80;99.90
13049;DHT22;6591;51.446;5.404;2022-11-20T06:03:53;2.90;99.90
13049;DHT22;6591;51.446;5.404;2022-11-20T06:06:20;2.90;99.90
13049;DHT22;6591;51.446;5.404;2022-11-20T06:08:48;2.90;99.90
13049;DHT22;6591;51.446;5.404;2022-11-20T06:11:16;2.90;99.90
13049;DHT22;6591;51.446;5.404;2022-11-20T06:13:44;3.00;99.90
13049;DHT22;6591;51.446;5.404;2022-11-20T06:16:14;3.00;99.90
13049;DHT22;6591;51.446;5.404;2022-11-20T06:18:42;3.00;99.90
13049;DHT22;6591;51.446;5.404;2022-11-20T06:21:11;3.10;99.90
13049;DHT22;6591;51.446;5.404;2022-11-20T06:23:40;3.10;99.90
13049;DHT22;6591;51.446;5.404;2022-11-20T06:26:21;3.10;99.90
13049;DHT22;6591;51.446;5.404;2022-11-20T06:28:50;3.20;99.90
13049;DHT22;6591;51.446;5.404;2022-11-20T06:31:20;3.20;99.90
13049;DHT22;6591;51.446;5.404;2022-11-20T06:33:49;3.30;99.90
13049;DHT22;6591;51.446;5.404;2022-11-20T06:36:18;3.30;99.90
13049;DHT22;6591;51.446;5.404;2022-11-20T06:38:47;3.30;99.90
13049;DHT22;6591;51.446;5.404;2022-11-20T06:41:16;3.30;99.90
13049;DHT22;6591;51.446;5.404;2022-11-20T06:43:46;3.40;99.90
13049;DHT22;6591;51.446;5.404;2022-11-20T06:46:14;3.40;99.90
13049;DHT22;6591;51.446;5.404;2022-11-20T06:48:46;3.40;99.90
13049;DHT22;6591;51.446;5.404;2022-11-20T06:51:14;3.40;99.90
13049;DHT22;6591;51.446;5.404;2022-11-20T06:53:41;3.50;99.90
13049;DHT22;6591;51.446;5.404;2022-11-20T06:56:08;3.50;99.90
13049;DHT22;6591;51.446;5.404;2022-11-20T06:58:35;3.50;99.90
13049;DHT22;6591;51.446;5.404;2022-11-20T07:01:06;3.60;99.90
13049;DHT22;6591;51.446;5.404;2022-11-20T07:03:37;3.60;99.90
13049;DHT22;6591;51.446;5.404;2022-11-20T07:06:05;3.60;99.90
13049;DHT22;6591;51.446;5.404;2022-11-20T07:08:32;3.70;99.90
13049;DHT22;6591;51.446;5.404;2022-11-20T07:11:03;3.70;99.90
13049;DHT22;6591;51.446;5.404;2022-11-20T07:13:32;3.70;99.90
13049;DHT22;6591;51.446;5.404;2022-11-20T07:16:01;3.70;99.90
13049;DHT22;6591;51.446;5.404;2022-11-20T07:18:30;3.80;99.90
13049;DHT22;6591;51.446;5.404;2022-11-20T07:21:01;3.80;99.90
13049;DHT22;6591;51.446;5.404;2022-11-20T07:23:29;3.80;99.90
13049;DHT22;6591;51.446;5.404;2022-11-20T07:25:56;3.80;99.90
13049;DHT22;6591;51.446;5.404;2022-11-20T07:28:23;3.90;99.90
13049;DHT22;6591;51.446;5.404;2022-11-20T07:30:51;3.90;99.90
13049;DHT22;6591;51.446;5.404;2022-11-20T07:33:20;3.90;99.90
13049;DHT22;6591;51.446;5.404;2022-11-20T07:35:47;3.90;99.90
13049;DHT22;6591;51.446;5.404;2022-11-20T07:38:16;4.00;99.90
13049;DHT22;6591;51.446;5.404;2022-11-20T07:40:43;4.00;99.90
13049;DHT22;6591;51.446;5.404;2022-11-20T07:43:10;4.00;99.90
13049;DHT22;6591;51.446;5.404;2022-11-20T07:45:37;3.90;99.90
13049;DHT22;6591;51.446;5.404;2022-11-20T07:48:04;4.00;99.90
13049;DHT22;6591;51.446;5.404;2022-11-20T07:50:31;4.00;99.90
13049;DHT22;6591;51.446;5.404;2022-11-20T07:53:03;4.00;99.90
13049;DHT22;6591;51.446;5.404;2022-11-20T07:55:31;4.00;99.90
13049;DHT22;6591;51.446;5.404;2022-11-20T07:57:59;4.00;99.90
13049;DHT22;6591;51.446;5.404;2022-11-20T08:00:26;4.10;99.90
13049;DHT22;6591;51.446;5.404;2022-11-20T08:02:53;4.10;99.90
13049;DHT22;6591;51.446;5.404;2022-11-20T08:05:21;4.20;99.90
13049;DHT22;6591;51.446;5.404;2022-11-20T08:07:47;4.20;99.90
13049;DHT22;6591;51.446;5.404;2022-11-20T08:10:15;4.30;99.90
13049;DHT22;6591;51.446;5.404;2022-11-20T08:12:47;5.40;99.90
13049;DHT22;6591;51.446;5.404;2022-11-20T08:15:35;4.40;99.90
13049;DHT22;6591;51.446;5.404;2022-11-20T08:18:08;4.50;99.90
13049;DHT22;6591;51.446;5.404;2022-11-20T08:21:01;4.50;99.90
13049;DHT22;6591;51.446;5.404;2022-11-20T08:23:29;4.60;99.90
13049;DHT22;6591;51.446;5.404;2022-11-20T08:25:56;4.60;99.90
13049;DHT22;6591;51.446;5.404;2022-11-20T08:28:23;4.70;99.90
13049;DHT22;6591;51.446;5.404;2022-11-20T08:30:50;4.70;99.90
13049;DHT22;6591;51.446;5.404;2022-11-20T08:33:17;4.80;99.90
13049;DHT22;6591;51.446;5.404;2022-11-20T08:35:44;4.80;99.90
13049;DHT22;6591;51.446;5.404;2022-11-20T08:38:12;4.80;99.90
13049;DHT22;6591;51.446;5.404;2022-11-20T08:40:38;4.90;99.90
13049;DHT22;6591;51.446;5.404;2022-11-20T08:43:05;4.90;99.90
13049;DHT22;6591;51.446;5.404;2022-11-20T08:45:32;5.00;99.90
13049;DHT22;6591;51.446;5.404;2022-11-20T08:48:04;5.00;99.90
13049;DHT22;6591;51.446;5.404;2022-11-20T08:50:31;5.00;99.90
13049;DHT22;6591;51.446;5.404;2022-11-20T08:53:06;5.00;99.90
13049;DHT22;6591;51.446;5.404;2022-11-20T08:55:33;5.10;99.90
13049;DHT22;6591;51.446;5.404;2022-11-20T08:58:05;5.20;99.90
13049;DHT22;6591;51.446;5.404;2022-11-20T09:00:33;5.20;99.90
13049;DHT22;6591;51.446;5.404;2022-11-20T09:03:01;5.20;99.90
13049;DHT22;6591;51.446;5.404;2022-11-20T09:05:28;5.30;99.90
13049;DHT22;6591;51.446;5.404;2022-11-20T09:07:58;5.30;99.90
13049;DHT22;6591;51.446;5.404;2022-11-20T09:10:27;5.40;99.90
13049;DHT22;6591;51.446;5.404;2022-11-20T09:12:54;5.50;99.90
13049;DHT22;6591;51.446;5.404;2022-11-20T09:15:23;5.50;99.90
13049;DHT22;6591;51.446;5.404;2022-11-20T09:17:56;5.60;99.90
13049;DHT22;6591;51.446;5.404;2022-11-20T09:20:26;5.60;99.90
13049;DHT22;6591;51.446;5.404;2022-11-20T09:22:56;5.70;99.90
13049;DHT22;6591;51.446;5.404;2022-11-20T09:25:23;5.70;99.90
13049;DHT22;6591;51.446;5.404;2022-11-20T09:27:57;5.70;99.90
13049;DHT22;6591;51.446;5.404;2022-11-20T09:30:25;5.80;99.90
13049;DHT22;6591;51.446;5.404;2022-11-20T09:32:53;5.80;99.90
13049;DHT22;6591;51.446;5.404;2022-11-20T09:35:20;5.90;99.90
13049;DHT22;6591;51.446;5.404;2022-11-20T09:37:47;5.90;99.90
13049;DHT22;6591;51.446;5.404;2022-11-20T09:40:23;6.00;99.90
13049;DHT22;6591;51.446;5.404;2022-11-20T09:46:16;6.10;99.90
13049;DHT22;6591;51.446;5.404;2022-11-20T09:52:34;7.10;99.90
13049;DHT22;6591;51.446;5.404;2022-11-20T09:55:15;6.40;99.90
13049;DHT22;6591;51.446;5.404;2022-11-20T09:57:46;6.40;99.90
13049;DHT22;6591;51.446;5.404;2022-11-20T10:00:16;7.00;99.90
13049;DHT22;6591;51.446;5.404;2022-11-20T10:02:59;6.50;99.90
13049;DHT22;6591;51.446;5.404;2022-11-20T10:05:41;6.60;99.90
13049;DHT22;6591;51.446;5.404;2022-11-20T10:08:22;6.60;99.90
13049;DHT22;6591;51.446;5.404;2022-11-20T10:11:20;6.70;99.90
13049;DHT22;6591;51.446;5.404;2022-11-20T10:23:17;7.00;99.90
13049;DHT22;6591;51.446;5.404;2022-11-20T10:26:12;7.10;99.90
13049;DHT22;6591;51.446;5.404;2022-11-20T10:31:35;7.50;99.90
13049;DHT22;6591;51.446;5.404;2022-11-20T10:34:24;7.60;99.90
13049;DHT22;6591;51.446;5.404;2022-11-20T10:37:09;7.80;99.90
13049;DHT22;6591;51.446;5.404;2022-11-20T10:39:54;7.90;99.90
13049;DHT22;6591;51.446;5.404;2022-11-20T10:48:16;8.20;99.90
13049;DHT22;6591;51.446;5.404;2022-11-20T10:51:07;8.20;99.90
13049;DHT22;6591;51.446;5.404;2022-11-20T10:56:42;8.30;99.90
13049;DHT22;6591;51.446;5.404;2022-11-20T11:01:54;8.30;99.90
13049;DHT22;6591;51.446;5.404;2022-11-20T11:04:37;8.30;99.90
13049;DHT22;6591;51.446;5.404;2022-11-20T11:07:25;8.30;99.90
13049;DHT22;6591;51.446;5.404;2022-11-20T11:09:57;8.30;99.90
13049;DHT22;6591;51.446;5.404;2022-11-20T11:12:25;8.40;99.90
13049;DHT22;6591;51.446;5.404;2022-11-20T11:14:57;8.40;99.90
13049;DHT22;6591;51.446;5.404;2022-11-20T11:17:33;8.40;99.90
13049;DHT22;6591;51.446;5.404;2022-11-20T11:22:46;8.40;99.90
13049;DHT22;6591;51.446;5.404;2022-11-20T11:27:55;8.30;99.90
13049;DHT22;6591;51.446;5.404;2022-11-20T11:30:48;8.30;99.90
13049;DHT22;6591;51.446;5.404;2022-11-20T11:33:20;8.30;99.90
13049;DHT22;6591;51.446;5.404;2022-11-20T11:36:04;8.20;99.90
13049;DHT22;6591;51.446;5.404;2022-11-20T11:38:44;8.20;99.90
13049;DHT22;6591;51.446;5.404;2022-11-20T11:41:21;8.20;99.90
13049;DHT22;6591;51.446;5.404;2022-11-20T11:44:00;8.20;99.90
13049;DHT22;6591;51.446;5.404;2022-11-20T11:46:58;8.10;99.90
13049;DHT22;6591;51.446;5.404;2022-11-20T11:49:25;8.10;99.90
13049;DHT22;6591;51.446;5.404;2022-11-20T11:52:00;7.20;99.90
13049;DHT22;6591;51.446;5.404;2022-11-20T12:05:38;8.20;99.90
13049;DHT22;6591;51.446;5.404;2022-11-20T12:16:50;8.30;99.90
13049;DHT22;6591;51.446;5.404;2022-11-20T12:19:19;8.30;99.90
13049;DHT22;6591;51.446;5.404;2022-11-20T12:21:58;8.40;99.90
13049;DHT22;6591;51.446;5.404;2022-11-20T12:30:15;8.50;99.90
13049;DHT22;6591;51.446;5.404;2022-11-20T12:33:12;8.50;99.90
13049;DHT22;6591;51.446;5.404;2022-11-20T12:41:58;8.70;99.90
13049;DHT22;6591;51.446;5.404;2022-11-20T12:58:09;9.00;99.90
13049;DHT22;6591;51.446;5.404;2022-11-20T13:07:11;9.20;99.90
13049;DHT22;6591;51.446;5.404;2022-11-20T13:09:46;9.30;99.90
13049;DHT22;6591;51.446;5.404;2022-11-20T13:12:32;9.30;99.90
13049;DHT22;6591;51.446;5.404;2022-11-20T13:15:26;9.40;99.90
13049;DHT22;6591;51.446;5.404;2022-11-20T13:18:03;9.40;99.90
13049;DHT22;6591;51.446;5.404;2022-11-20T13:20:35;9.50;99.90
13049;DHT22;6591;51.446;5.404;2022-11-20T13:23:02;9.50;99.90
13049;DHT22;6591;51.446;5.404;2022-11-20T13:25:34;11.40;99.90
13049;DHT22;6591;51.446;5.404;2022-11-20T13:28:05;9.50;99.90
13049;DHT22;6591;51.446;5.404;2022-11-20T13:30:56;11.10;99.90
13049;DHT22;6591;51.446;5.404;2022-11-20T13:33:35;11.30;99.90
13049;DHT22;6591;51.446;5.404;2022-11-20T13:36:24;9.50;99.90
13049;DHT22;6591;51.446;5.404;2022-11-20T13:38:55;9.50;99.90
13049;DHT22;6591;51.446;5.404;2022-11-20T13:41:31;9.60;99.90
13049;DHT22;6591;51.446;5.404;2022-11-20T13:44:21;9.60;99.90
13049;DHT22;6591;51.446;5.404;2022-11-20T13:46:50;9.60;99.90
13049;DHT22;6591;51.446;5.404;2022-11-20T13:56:14;9.60;99.90
13049;DHT22;6591;51.446;5.404;2022-11-20T14:01:23;9.60;99.90
13049;DHT22;6591;51.446;5.404;2022-11-20T14:03:53;10.50;99.90
13049;DHT22;6591;51.446;5.404;2022-11-20T14:06:42;9.60;99.90
13049;DHT22;6591;51.446;5.404;2022-11-20T14:09:29;9.60;99.90
13049;DHT22;6591;51.446;5.404;2022-11-20T14:11:58;9.60;99.90
13049;DHT22;6591;51.446;5.404;2022-11-20T14:14:30;9.60;99.90
13049;DHT22;6591;51.446;5.404;2022-11-20T14:20:06;9.50;99.90
13049;DHT22;6591;51.446;5.404;2022-11-20T14:22:52;9.50;99.90
13049;DHT22;6591;51.446;5.404;2022-11-20T14:25:22;9.50;99.90
13049;DHT22;6591;51.446;5.404;2022-11-20T14:27:58;11.30;99.90
13049;DHT22;6591;51.446;5.404;2022-11-20T14:30:44;9.40;99.90
13049;DHT22;6591;51.446;5.404;2022-11-20T14:33:15;9.40;99.90
13049;DHT22;6591;51.446;5.404;2022-11-20T14:35:48;11.40;99.90
13049;DHT22;6591;51.446;5.404;2022-11-20T14:38:18;9.30;99.90
13049;DHT22;6591;51.446;5.404;2022-11-20T14:40:48;9.20;99.90
13049;DHT22;6591;51.446;5.404;2022-11-20T14:43:24;9.20;99.90
13049;DHT22;6591;51.446;5.404;2022-11-20T14:46:02;10.00;99.90
13049;DHT22;6591;51.446;5.404;2022-11-20T14:48:45;9.10;99.90
13049;DHT22;6591;51.446;5.404;2022-11-20T14:51:34;11.00;99.90
13049;DHT22;6591;51.446;5.404;2022-11-20T14:54:20;9.00;99.90
13049;DHT22;6591;51.446;5.404;2022-11-20T14:56:57;9.00;99.90
13049;DHT22;6591;51.446;5.404;2022-11-20T14:59:33;9.00;99.90
13049;DHT22;6591;51.446;5.404;2022-11-20T15:02:04;8.90;99.90
13049;DHT22;6591;51.446;5.404;2022-11-20T15:04:48;8.90;99.90
13049;DHT22;6591;51.446;5.404;2022-11-20T15:07:25;8.80;99.90
13049;DHT22;6591;51.446;5.404;2022-11-20T15:10:11;8.80;99.90
13049;DHT22;6591;51.446;5.404;2022-11-20T15:13:04;8.80;99.90
13049;DHT22;6591;51.446;5.404;2022-11-20T15:15:53;8.80;99.90
13049;DHT22;6591;51.446;5.404;2022-11-20T15:18:27;8.80;99.90
13049;DHT22;6591;51.446;5.404;2022-11-20T15:21:01;8.80;99.90
13049;DHT22;6591;51.446;5.404;2022-11-20T15:23:29;8.80;99.90
13049;DHT22;6591;51.446;5.404;2022-11-20T15:25:56;8.80;99.90
13049;DHT22;6591;51.446;5.404;2022-11-20T15:28:41;8.80;99.90
13049;DHT22;6591;51.446;5.404;2022-11-20T15:31:12;8.80;99.90
13049;DHT22;6591;51.446;5.404;2022-11-20T15:33:41;8.80;99.90
13049;DHT22;6591;51.446;5.404;2022-11-20T15:36:09;8.80;99.90
13049;DHT22;6591;51.446;5.404;2022-11-20T15:38:36;8.80;99.90
13049;DHT22;6591;51.446;5.404;2022-11-20T15:41:04;8.80;99.90
13049;DHT22;6591;51.446;5.404;2022-11-20T15:43:31;8.80;99.90
13049;DHT22;6591;51.446;5.404;2022-11-20T15:46:13;8.80;99.90
13049;DHT22;6591;51.446;5.404;2022-11-20T15:48:44;8.90;99.90
13049;DHT22;6591;51.446;5.404;2022-11-20T15:51:28;8.90;99.90
13049;DHT22;6591;51.446;5.404;2022-11-20T15:53:57;8.90;99.90
13049;DHT22;6591;51.446;5.404;2022-11-20T15:56:25;8.90;99.90
13049;DHT22;6591;51.446;5.404;2022-11-20T15:58:52;8.90;99.90
13049;DHT22;6591;51.446;5.404;2022-11-20T16:01:21;8.90;99.90
13049;DHT22;6591;51.446;5.404;2022-11-20T16:03:49;9.00;99.90
13049;DHT22;6591;51.446;5.404;2022-11-20T16:06:16;9.00;99.90
13049;DHT22;6591;51.446;5.404;2022-11-20T16:08:43;9.00;99.90
13049;DHT22;6591;51.446;5.404;2022-11-20T16:11:15;9.00;99.90
13049;DHT22;6591;51.446;5.404;2022-11-20T16:13:44;9.00;99.90
13049;DHT22;6591;51.446;5.404;2022-11-20T16:16:35;9.00;99.90
13049;DHT22;6591;51.446;5.404;2022-11-20T16:19:03;9.10;99.90
13049;DHT22;6591;51.446;5.404;2022-11-20T16:21:30;9.10;99.90
13049;DHT22;6591;51.446;5.404;2022-11-20T16:24:02;9.20;99.90
13049;DHT22;6591;51.446;5.404;2022-11-20T16:26:32;9.20;99.90
13049;DHT22;6591;51.446;5.404;2022-11-20T16:29:01;9.30;99.90
13049;DHT22;6591;51.446;5.404;2022-11-20T16:31:29;9.30;99.90
13049;DHT22;6591;51.446;5.404;2022-11-20T16:34:00;9.30;99.90
13049;DHT22;6591;51.446;5.404;2022-11-20T16:36:39;9.30;99.90
13049;DHT22;6591;51.446;5.404;2022-11-20T16:39:07;9.40;99.90
13049;DHT22;6591;51.446;5.404;2022-11-20T16:41:35;9.50;99.90
13049;DHT22;6591;51.446;5.404;2022-11-20T16:44:07;9.50;99.90
13049;DHT22;6591;51.446;5.404;2022-11-20T16:46:37;9.50;99.90
13049;DHT22;6591;51.446;5.404;2022-11-20T16:49:06;9.50;99.90
13049;DHT22;6591;51.446;5.404;2022-11-20T16:51:37;10.50;99.90
13049;DHT22;6591;51.446;5.404;2022-11-20T16:54:06;9.50;99.90
13049;DHT22;6591;51.446;5.404;2022-11-20T16:56:33;9.50;99.90
13049;DHT22;6591;51.446;5.404;2022-11-20T16:59:01;9.50;99.90
13049;DHT22;6591;51.446;5.404;2022-11-20T17:01:28;9.50;99.90
13049;DHT22;6591;51.446;5.404;2022-11-20T17:03:58;11.00;99.90
13049;DHT22;6591;51.446;5.404;2022-11-20T17:06:29;9.60;99.90
13049;DHT22;6591;51.446;5.404;2022-11-20T17:08:58;9.60;99.90
13049;DHT22;6591;51.446;5.404;2022-11-20T17:11:25;9.60;99.90
13049;DHT22;6591;51.446;5.404;2022-11-20T17:13:57;9.60;99.90
13049;DHT22;6591;51.446;5.404;2022-11-20T17:16:29;9.60;99.90
13049;DHT22;6591;51.446;5.404;2022-11-20T17:18:58;9.70;99.90
13049;DHT22;6591;51.446;5.404;2022-11-20T17:21:30;10.60;99.90
13049;DHT22;6591;51.446;5.404;2022-11-20T17:24:06;9.70;99.90
13049;DHT22;6591;51.446;5.404;2022-11-20T17:26:37;9.70;99.90
13049;DHT22;6591;51.446;5.404;2022-11-20T17:29:07;9.70;99.90
13049;DHT22;6591;51.446;5.404;2022-11-20T17:31:39;11.60;99.90
13049;DHT22;6591;51.446;5.404;2022-11-20T17:34:09;9.70;99.90
13049;DHT22;6591;51.446;5.404;2022-11-20T17:36:38;9.70;99.90
13049;DHT22;6591;51.446;5.404;2022-11-20T17:39:12;9.80;99.90
13049;DHT22;6591;51.446;5.404;2022-11-20T17:41:41;9.80;99.90
13049;DHT22;6591;51.446;5.404;2022-11-20T17:44:09;9.80;99.90
13049;DHT22;6591;51.446;5.404;2022-11-20T17:46:37;9.90;99.90
13049;DHT22;6591;51.446;5.404;2022-11-20T17:49:04;9.90;99.90
13049;DHT22;6591;51.446;5.404;2022-11-20T17:51:32;10.00;99.90
13049;DHT22;6591;51.446;5.404;2022-11-20T17:54:03;10.00;99.90
13049;DHT22;6591;51.446;5.404;2022-11-20T17:56:33;10.10;99.90
13049;DHT22;6591;51.446;5.404;2022-11-20T17:59:19;12.00;99.90
13049;DHT22;6591;51.446;5.404;2022-11-20T18:01:46;10.20;99.90
13049;DHT22;6591;51.446;5.404;2022-11-20T18:04:14;10.20;99.90
13049;DHT22;6591;51.446;5.404;2022-11-20T18:06:42;10.30;99.90
13049;DHT22;6591;51.446;5.404;2022-11-20T18:09:09;10.30;99.90
13049;DHT22;6591;51.446;5.404;2022-11-20T18:11:38;10.30;99.90
13049;DHT22;6591;51.446;5.404;2022-11-20T18:14:11;10.40;99.90